CheckWX is a tool to help pilots better visualize weather data.  It is not intended as a substitute for an official pre-flight weather briefing.

15:39:36 UTC

CYQL TAF
Lethbridge County Airport
Lethbridge, Canada
TAF CYQL 221140Z 2212/2224 26008KT P6SM BKN120 TEMPO 2212/2216 VRB20G30KT P6SM -TSRA OVC090CB FM221600 16008KT P6SM BKN080 BKN160 RMK FCST BASED ON AUTO OBS. NXT FCST BY 221800Z

Aug-22@
12:00 UTC

Aug-22 @ 12:00 UTC

Aug-22@
16:00 UTC

Aug-22 @ 16:00 UTC

TAF CYQL 221140Z 2212/2224 26008KT P6SM BKN120
Wind
  • 260° at 8 KTS
Cloud Levels
  • Broken at 12,000' AGL

Aug-22@
12:00 UTC

Aug-22 @ 12:00 UTC

Aug-22@
16:00 UTC

Aug-22 @ 16:00 UTC

TEMPO 2212/2216 VRB20G30KT P6SM -TSRA OVC090CB

Temporary

Temporary Changes expected for less than half the time period

Wind
  • Variable at 20 KTS
  • {Gusting to 30 KTS
Conditions
Light Thunderstorm, Light Rain
Cloud Levels
  • Overcast at 9,000' AGL

Aug-22@
16:00 UTC

Aug-22 @ 16:00 UTC

Aug-23@
00:00 UTC

Aug-23 @ 00:00 UTC

FM221600 16008KT P6SM BKN080 BKN160 RMK FCST BASED ON AUTO OBS. NXT FCST BY 221800Z

From

From Standard forecast or significant change

Wind
  • 160° at 8 KTS
Cloud Levels
  • Broken at 8,000' AGL
  • Broken at 16,000' AGL